createdAt,value
2023-01-15T00:02:34.423Z,99318.70
2023-01-15T00:05:08.761Z,99316.23
2023-01-15T00:07:41.267Z,99310.39
2023-01-15T00:10:17.280Z,99308.69
2023-01-15T00:12:52.016Z,99307.19
2023-01-15T00:15:22.832Z,99301.20
2023-01-15T00:17:55.270Z,99300.70
2023-01-15T00:20:27.898Z,99295.05
2023-01-15T00:23:00.250Z,99285.98
2023-01-15T00:25:50.235Z,99287.17
2023-01-15T00:28:22.744Z,99290.02
2023-01-15T00:30:55.459Z,99286.86
2023-01-15T00:33:28.445Z,99270.85
2023-01-15T00:36:00.968Z,99258.83
2023-01-15T00:38:33.414Z,99257.41
2023-01-15T00:41:06.112Z,99261.27
2023-01-15T00:43:39.778Z,99259.42
2023-01-15T00:46:12.399Z,99254.92
2023-01-15T00:48:44.903Z,99247.54
2023-01-15T00:51:20.185Z,99223.33
2023-01-15T00:53:52.732Z,99234.75
2023-01-15T00:56:25.271Z,99236.79
2023-01-15T00:59:00.388Z,99233.24
2023-01-15T01:01:33.435Z,99223.39
2023-01-15T01:04:06.284Z,99234.24
2023-01-15T01:06:40.588Z,99229.68
2023-01-15T01:09:16.205Z,99224.45
2023-01-15T01:11:50.048Z,99215.50
2023-01-15T01:14:22.525Z,99213.87
2023-01-15T01:16:55.143Z,99197.27
2023-01-15T01:19:27.958Z,99183.02
2023-01-15T01:22:02.986Z,99187.87
2023-01-15T01:24:36.775Z,99203.81
2023-01-15T01:27:09.453Z,99196.62
2023-01-15T01:29:42.127Z,99189.88
2023-01-15T01:32:15.182Z,99192.99
2023-01-15T01:34:47.692Z,99193.65
2023-01-15T01:37:20.352Z,99181.90
2023-01-15T01:39:52.696Z,99181.27
2023-01-15T01:42:26.089Z,99178.51
2023-01-15T01:45:13.753Z,99169.48
2023-01-15T01:47:47.816Z,99165.97
2023-01-15T01:50:22.539Z,99145.92
2023-01-15T01:52:59.413Z,99162.72
2023-01-15T01:55:34.961Z,99161.48
2023-01-15T01:58:10.980Z,99155.30
2023-01-15T02:00:47.520Z,99152.50
2023-01-15T02:03:23.471Z,99141.10
2023-01-15T02:08:57.755Z,99125.38
2023-01-15T02:11:31.699Z,99121.91
2023-01-15T02:14:16.726Z,99113.50
2023-01-15T02:16:54.059Z,99080.31
2023-01-15T02:19:41.603Z,99113.17
2023-01-15T02:22:25.297Z,99119.86
2023-01-15T02:25:09.568Z,99114.55
2023-01-15T02:27:47.640Z,99116.55
2023-01-15T02:30:24.836Z,99110.30
2023-01-15T02:33:06.212Z,99100.07
2023-01-15T02:35:43.751Z,99088.52
2023-01-15T02:38:22.736Z,99069.87
2023-01-15T02:41:01.637Z,99074.58
2023-01-15T02:43:38.935Z,99072.34
2023-01-15T02:46:12.511Z,99073.55
2023-01-15T02:48:51.572Z,99078.62
2023-01-15T02:51:27.273Z,99080.75
2023-01-15T02:54:05.115Z,99066.77
2023-01-15T02:56:41.651Z,99074.40
2023-01-15T02:59:18.753Z,99071.06
2023-01-15T03:01:57.342Z,99076.48
2023-01-15T03:04:34.318Z,99074.57
2023-01-15T03:07:13.455Z,99058.53
2023-01-15T03:09:47.035Z,99075.90
2023-01-15T03:12:25.821Z,99072.50
2023-01-15T03:15:10.733Z,99074.16
2023-01-15T03:17:50.106Z,99074.26
2023-01-15T03:20:26.284Z,99052.43
2023-01-15T03:23:09.168Z,99065.43
2023-01-15T03:25:48.346Z,99056.33
2023-01-15T03:28:25.340Z,99048.47
2023-01-15T03:30:59.752Z,99041.41
2023-01-15T03:33:34.775Z,99018.09
2023-01-15T03:36:08.727Z,99040.08
2023-01-15T03:38:50.848Z,99043.48
2023-01-15T03:41:46.196Z,99036.89
2023-01-15T03:44:28.558Z,99036.96
2023-01-15T03:47:21.506Z,99035.06
2023-01-15T03:50:04.723Z,99033.24
2023-01-15T03:52:53.019Z,99024.52
2023-01-15T03:55:34.223Z,99001.59
2023-01-15T03:58:14.654Z,99012.63
2023-01-15T04:00:51.595Z,99012.06
2023-01-15T04:03:27.318Z,99006.27
2023-01-15T04:06:01.769Z,99000.24
2023-01-15T04:08:39.012Z,99000.95
2023-01-15T04:11:12.059Z,98999.53
2023-01-15T04:13:51.750Z,98990.17
2023-01-15T04:16:50.196Z,98999.20
2023-01-15T04:19:23.166Z,98992.23
2023-01-15T04:22:04.931Z,98994.92
2023-01-15T04:24:40.934Z,98995.25
2023-01-15T04:27:15.191Z,99000.64
2023-01-15T04:29:48.099Z,98998.18
2023-01-15T04:32:20.560Z,98986.93
2023-01-15T04:34:54.181Z,98981.77
2023-01-15T04:37:26.549Z,98951.39
2023-01-15T04:40:00.651Z,98936.72
2023-01-15T04:42:50.748Z,98968.44
2023-01-15T04:45:23.246Z,98966.08
2023-01-15T04:47:55.767Z,98962.98
2023-01-15T04:50:28.173Z,98959.71
2023-01-15T04:53:00.643Z,98955.27
2023-01-15T04:55:33.831Z,98955.92
2023-01-15T04:58:06.382Z,98945.99
2023-01-15T05:00:38.794Z,98943.48
2023-01-15T05:03:11.280Z,98935.59
2023-01-15T05:05:43.637Z,98945.20
2023-01-15T05:08:16.035Z,98942.91
2023-01-15T05:10:49.771Z,98935.99
2023-01-15T05:13:23.872Z,98942.14
2023-01-15T05:15:56.321Z,98941.46
2023-01-15T05:18:29.132Z,98944.80
2023-01-15T05:21:01.451Z,98941.30
2023-01-15T05:23:34.076Z,98934.41
2023-01-15T05:26:09.509Z,98941.23
2023-01-15T05:28:42.347Z,98939.24
2023-01-15T05:31:17.477Z,98940.67
2023-01-15T05:33:51.256Z,98945.58
2023-01-15T05:36:25.660Z,98943.47
2023-01-15T05:39:02.405Z,98943.92
2023-01-15T05:41:50.977Z,98933.20
2023-01-15T05:44:26.810Z,98939.78
2023-01-15T05:47:02.594Z,98935.44
2023-01-15T05:49:35.553Z,98933.77
2023-01-15T05:52:09.280Z,98930.13
2023-01-15T05:54:41.729Z,98928.39
2023-01-15T05:57:14.910Z,98929.65
2023-01-15T05:59:49.394Z,98924.65
2023-01-15T06:02:21.845Z,98913.47
2023-01-15T06:04:54.393Z,98921.88
2023-01-15T06:07:26.857Z,98920.70
2023-01-15T06:09:59.379Z,98916.73
2023-01-15T06:12:33.596Z,98916.56
2023-01-15T06:15:06.943Z,98911.81
2023-01-15T06:17:39.778Z,98904.85
2023-01-15T06:20:14.941Z,98906.27
2023-01-15T06:22:50.006Z,98895.98
2023-01-15T06:25:22.586Z,98906.27
2023-01-15T06:27:55.081Z,98905.55
2023-01-15T06:30:27.729Z,98899.52
2023-01-15T06:33:00.127Z,98877.04
2023-01-15T06:35:32.804Z,98888.67
2023-01-15T06:38:05.216Z,98907.78
2023-01-15T06:40:37.719Z,98910.86
2023-01-15T06:43:28.707Z,98911.90
2023-01-15T06:46:19.075Z,98907.55
2023-01-15T06:48:51.828Z,98904.94
2023-01-15T06:51:25.003Z,98896.52
2023-01-15T06:53:57.499Z,98897.32
2023-01-15T06:56:30.217Z,98893.04
2023-01-15T06:59:02.971Z,98901.52
2023-01-15T07:01:35.476Z,98896.29
2023-01-15T07:04:08.096Z,98892.39
2023-01-15T07:06:40.718Z,98894.46
2023-01-15T07:09:13.186Z,98892.48
2023-01-15T07:11:50.582Z,98903.44
2023-01-15T07:14:25.323Z,98893.77
2023-01-15T07:16:56.925Z,98895.42
2023-01-15T07:19:29.590Z,98892.34
2023-01-15T07:22:03.713Z,98892.02
2023-01-15T07:24:36.400Z,98890.59
2023-01-15T07:27:09.201Z,98886.47
2023-01-15T07:29:41.568Z,98888.75
2023-01-15T07:32:14.770Z,98889.16
2023-01-15T07:34:47.552Z,98879.02
2023-01-15T07:37:20.346Z,98892.02
2023-01-15T07:39:52.646Z,98889.41
2023-01-15T07:42:42.426Z,98886.16
2023-01-15T07:45:32.929Z,98887.02
2023-01-15T07:48:24.019Z,98889.79
2023-01-15T07:50:56.426Z,98890.27
2023-01-15T07:53:28.928Z,98889.09
2023-01-15T07:56:01.389Z,98891.86
2023-01-15T07:58:34.069Z,98888.85
2023-01-15T08:01:06.607Z,98892.01
2023-01-15T08:03:39.310Z,98893.92
2023-01-15T08:06:11.904Z,98887.59
2023-01-15T08:08:44.349Z,98890.18
2023-01-15T08:11:34.326Z,98891.14
2023-01-15T08:14:24.635Z,98882.98
2023-01-15T08:16:57.136Z,98886.55
2023-01-15T08:19:30.878Z,98884.14
2023-01-15T08:22:03.328Z,98880.60
2023-01-15T08:24:35.765Z,98879.25
2023-01-15T08:27:08.284Z,98880.69
2023-01-15T08:29:40.841Z,98885.42
2023-01-15T08:32:13.479Z,98883.66
2023-01-15T08:34:45.959Z,98877.41
2023-01-15T08:37:18.379Z,98878.19
2023-01-15T08:39:53.200Z,98877.88
2023-01-15T08:42:24.087Z,98877.06
2023-01-15T08:44:56.594Z,98874.85
2023-01-15T08:47:29.318Z,98870.56
2023-01-15T08:50:02.128Z,98865.04
2023-01-15T08:52:34.798Z,98867.55
2023-01-15T08:55:08.815Z,98869.84
2023-01-15T08:57:41.312Z,98874.84
2023-01-15T09:00:17.692Z,98883.81
2023-01-15T09:02:50.494Z,98884.04
2023-01-15T09:05:23.279Z,98881.01
2023-01-15T09:07:55.881Z,98890.55
2023-01-15T09:10:28.462Z,98896.40
2023-01-15T09:13:03.045Z,98901.17
2023-01-15T09:15:36.350Z,98907.43
2023-01-15T09:18:10.745Z,98911.86
2023-01-15T09:20:43.714Z,98910.45
2023-01-15T09:23:16.323Z,98933.39
2023-01-15T09:26:00.127Z,98989.70
2023-01-15T09:28:32.930Z,98997.38
2023-01-15T09:31:05.732Z,99001.98
2023-01-15T09:33:38.138Z,99003.27
2023-01-15T09:36:18.148Z,99020.00
2023-01-15T09:38:51.872Z,99020.63
2023-01-15T09:41:57.899Z,99020.59
2023-01-15T09:44:53.271Z,98994.23
2023-01-15T09:47:28.200Z,99030.16
2023-01-15T09:50:17.287Z,99033.63
2023-01-15T09:53:30.047Z,99046.36
2023-01-15T09:56:04.950Z,99052.21
2023-01-15T09:58:37.845Z,99066.95
2023-01-15T10:01:18.313Z,99067.78
2023-01-15T10:03:55.684Z,99077.44
2023-01-15T10:06:30.114Z,99071.63
2023-01-15T10:09:12.352Z,99070.50
2023-01-15T10:12:13.534Z,99066.48
2023-01-15T10:14:56.511Z,99067.90
2023-01-15T10:17:48.795Z,99072.52
2023-01-15T10:20:50.311Z,99074.38
2023-01-15T10:24:02.641Z,99077.10
2023-01-15T10:26:40.739Z,99066.17
2023-01-15T10:29:26.112Z,99065.38
2023-01-15T10:33:07.839Z,99071.11
2023-01-15T10:35:43.446Z,99049.51
2023-01-15T10:38:24.764Z,99044.68
2023-01-15T10:41:25.541Z,99072.19
2023-01-15T10:44:23.820Z,99079.57
2023-01-15T10:47:38.854Z,99079.79
2023-01-15T10:50:21.139Z,99075.02
2023-01-15T10:53:02.789Z,99081.29
2023-01-15T10:55:38.499Z,99082.31
2023-01-15T10:58:39.319Z,99080.65
2023-01-15T11:01:19.670Z,99074.75
2023-01-15T11:04:12.586Z,99082.77
2023-01-15T11:06:51.843Z,99075.94
2023-01-15T11:09:33.699Z,99080.48
2023-01-15T11:12:41.427Z,99082.64
2023-01-15T11:15:43.575Z,99075.14
2023-01-15T11:18:44.294Z,99083.35
2023-01-15T11:21:29.353Z,99084.48
2023-01-15T11:24:01.128Z,99086.00
2023-01-15T11:26:35.665Z,99089.04
2023-01-15T11:29:30.881Z,99098.38
2023-01-15T11:32:30.406Z,99096.80
2023-01-15T11:35:05.675Z,99099.80
2023-01-15T11:37:38.307Z,99111.99
2023-01-15T11:40:20.500Z,99122.05
2023-01-15T11:43:11.296Z,99119.66
2023-01-15T11:46:09.917Z,99109.55
2023-01-15T11:49:07.225Z,99104.25
2023-01-15T11:51:48.702Z,99102.24
2023-01-15T11:54:29.585Z,99099.92
2023-01-15T11:57:02.463Z,99124.69
2023-01-15T11:59:41.416Z,99128.05
2023-01-15T12:02:37.197Z,99125.85
2023-01-15T12:05:41.912Z,99115.39
2023-01-15T12:08:42.702Z,99129.29
2023-01-15T12:11:29.206Z,99138.28
2023-01-15T12:14:30.111Z,99146.15
2023-01-15T12:17:09.271Z,99151.41
2023-01-15T12:19:51.857Z,99158.95
2023-01-15T12:22:37.919Z,99154.53
2023-01-15T12:25:34.512Z,99153.49
2023-01-15T12:28:13.365Z,99154.79
2023-01-15T12:30:54.976Z,99158.91
2023-01-15T12:33:42.154Z,99151.72
2023-01-15T12:36:20.339Z,99145.48
2023-01-15T12:38:58.762Z,99153.71
2023-01-15T12:41:48.782Z,99159.73
2023-01-15T12:44:46.241Z,99158.03
2023-01-15T12:47:23.919Z,99139.43
2023-01-15T12:50:08.266Z,99131.40
2023-01-15T12:52:45.042Z,99126.67
2023-01-15T12:55:21.117Z,99124.88
2023-01-15T12:57:56.400Z,99127.46
2023-01-15T13:00:34.335Z,99133.04
2023-01-15T13:03:20.783Z,99135.02
2023-01-15T13:05:58.343Z,99134.44
2023-01-15T13:08:36.681Z,99133.13
2023-01-15T13:11:11.554Z,99127.31
2023-01-15T13:13:58.116Z,99127.48
2023-01-15T13:16:42.959Z,99139.45
2023-01-15T13:19:33.859Z,99135.53
2023-01-15T13:22:12.236Z,99147.08
2023-01-15T13:25:19.502Z,99146.17
2023-01-15T13:28:05.526Z,99146.69
2023-01-15T13:30:54.176Z,99150.80
2023-01-15T13:33:33.682Z,99157.57
2023-01-15T13:36:13.325Z,99150.30
2023-01-15T13:38:50.467Z,99145.70
2023-01-15T13:41:41.432Z,99158.09
2023-01-15T13:44:22.905Z,99158.73
2023-01-15T13:47:04.505Z,99168.50
2023-01-15T13:49:41.606Z,99163.53
2023-01-15T13:52:27.698Z,99170.25
2023-01-15T13:55:07.418Z,99166.33
2023-01-15T13:58:06.822Z,99155.20
2023-01-15T14:00:40.716Z,99162.09
2023-01-15T14:06:17.418Z,99157.17
2023-01-15T14:08:52.370Z,99143.59
2023-01-15T14:11:40.711Z,99139.35
2023-01-15T14:14:44.161Z,99145.45
2023-01-15T14:17:48.360Z,99152.77
2023-01-15T14:20:44.494Z,99158.24
2023-01-15T14:23:46.145Z,99162.00
2023-01-15T14:26:41.299Z,99171.29
2023-01-15T14:29:53.528Z,99176.30
2023-01-15T14:33:12.064Z,99179.97
2023-01-15T14:36:27.848Z,99190.14
2023-01-15T14:39:28.665Z,99174.83
2023-01-15T14:42:26.174Z,99184.54
2023-01-15T14:45:18.727Z,99174.66
2023-01-15T14:47:53.320Z,99158.73
2023-01-15T14:50:34.609Z,99156.17
2023-01-15T14:53:41.361Z,99167.46
2023-01-15T14:56:36.400Z,99165.61
2023-01-15T14:59:18.141Z,99163.59
2023-01-15T15:01:57.126Z,99157.61
2023-01-15T15:04:38.794Z,99162.33
2023-01-15T15:07:18.269Z,99170.71
2023-01-15T15:09:57.862Z,99161.33
2023-01-15T15:12:40.288Z,99161.41
2023-01-15T15:15:20.373Z,99152.08
2023-01-15T15:18:02.846Z,99157.43
2023-01-15T15:20:47.945Z,99175.35
2023-01-15T15:23:26.770Z,99182.87
2023-01-15T15:26:02.200Z,99197.04
2023-01-15T15:28:35.598Z,99193.55
2023-01-15T15:31:10.918Z,99187.00
2023-01-15T15:33:44.643Z,99179.52
2023-01-15T15:36:17.766Z,99179.24
2023-01-15T15:38:58.022Z,99178.41
2023-01-15T15:41:54.245Z,99189.73
2023-01-15T15:44:53.343Z,99202.88
2023-01-15T15:47:45.705Z,99214.21
2023-01-15T15:50:26.888Z,99219.98
2023-01-15T15:53:04.815Z,99218.35
2023-01-15T15:55:42.769Z,99209.62
2023-01-15T15:58:23.912Z,99208.36
2023-01-15T16:00:57.963Z,99205.09
2023-01-15T16:03:33.620Z,99202.89
2023-01-15T16:06:10.473Z,99203.40
2023-01-15T16:08:53.023Z,99201.02
2023-01-15T16:11:28.212Z,99205.85
2023-01-15T16:14:05.315Z,99200.27
2023-01-15T16:16:40.109Z,99200.33
2023-01-15T16:19:18.870Z,99185.32
2023-01-15T16:21:53.202Z,99214.61
2023-01-15T16:24:31.485Z,99217.98
2023-01-15T16:27:09.499Z,99225.59
2023-01-15T16:29:49.654Z,99230.57
2023-01-15T16:32:29.017Z,99255.33
2023-01-15T16:35:09.886Z,99271.21
2023-01-15T16:37:43.279Z,99277.45
2023-01-15T16:40:30.042Z,99282.45
2023-01-15T16:43:12.974Z,99285.23
2023-01-15T16:46:03.293Z,99289.50
2023-01-15T16:48:38.352Z,99279.23
2023-01-15T16:51:34.879Z,99299.39
2023-01-15T16:54:30.217Z,99296.31
2023-01-15T16:57:05.399Z,99300.73
2023-01-15T17:00:06.502Z,99301.15
2023-01-15T17:02:47.460Z,99307.90
2023-01-15T17:05:26.829Z,99325.25
2023-01-15T17:08:00.089Z,99329.20
2023-01-15T17:10:33.761Z,99309.37
2023-01-15T17:13:06.693Z,99339.00
2023-01-15T17:15:44.286Z,99333.31
2023-01-15T17:18:28.603Z,99340.50
2023-01-15T17:21:02.601Z,99357.30
2023-01-15T17:23:43.000Z,99331.58
2023-01-15T17:26:20.933Z,99346.84
2023-01-15T17:28:53.720Z,99329.98
2023-01-15T17:31:30.199Z,99329.77
2023-01-15T17:34:04.983Z,99347.04
2023-01-15T17:36:35.984Z,99349.22
2023-01-15T17:39:13.087Z,99352.23
2023-01-15T17:41:50.788Z,99362.77
2023-01-15T17:44:30.548Z,99357.41
2023-01-15T17:47:07.389Z,99370.65
2023-01-15T17:50:08.829Z,99367.20
2023-01-15T17:52:58.196Z,99361.29
2023-01-15T17:56:00.408Z,99364.94
2023-01-15T17:59:38.504Z,99346.37
2023-01-15T18:02:57.176Z,99348.52
2023-01-15T18:05:36.900Z,99349.73
2023-01-15T18:08:11.450Z,99349.63
2023-01-15T18:10:56.234Z,99354.54
2023-01-15T18:13:32.978Z,99345.46
2023-01-15T18:16:05.736Z,99365.67
2023-01-15T18:18:57.127Z,99364.16
2023-01-15T18:21:43.445Z,99367.71
2023-01-15T18:24:18.005Z,99366.33
2023-01-15T18:26:52.805Z,99363.70
2023-01-15T18:29:25.478Z,99360.86
2023-01-15T18:31:58.416Z,99359.40
2023-01-15T18:34:31.187Z,99360.27
2023-01-15T18:37:03.788Z,99360.06
2023-01-15T18:39:37.708Z,99351.34
2023-01-15T18:42:28.809Z,99361.67
2023-01-15T18:45:18.996Z,99370.42
2023-01-15T18:48:05.921Z,99380.40
2023-01-15T18:50:38.787Z,99382.28
2023-01-15T18:53:12.866Z,99375.73
2023-01-15T18:55:45.507Z,99383.91
2023-01-15T18:58:21.968Z,99392.38
2023-01-15T19:01:11.391Z,99389.31
2023-01-15T19:03:47.252Z,99385.27
2023-01-15T19:06:20.209Z,99356.20
2023-01-15T19:09:16.211Z,99387.73
2023-01-15T19:11:48.954Z,99386.85
2023-01-15T19:14:39.337Z,99382.96
2023-01-15T19:17:34.625Z,99381.69
2023-01-15T19:20:09.588Z,99391.27
2023-01-15T19:22:57.941Z,99388.27
2023-01-15T19:25:33.645Z,99383.65
2023-01-15T19:28:06.488Z,99380.76
2023-01-15T19:30:40.179Z,99379.98
2023-01-15T19:33:12.809Z,99379.36
2023-01-15T19:35:46.081Z,99382.81
2023-01-15T19:38:18.650Z,99381.89
2023-01-15T19:40:51.247Z,99387.41
2023-01-15T19:43:41.731Z,99384.89
2023-01-15T19:46:32.040Z,99385.04
2023-01-15T19:49:36.970Z,99393.92
2023-01-15T19:52:27.164Z,99397.48
2023-01-15T19:55:00.579Z,99398.19
2023-01-15T19:57:34.184Z,99389.65
2023-01-15T20:00:08.874Z,99369.02
2023-01-15T20:02:42.826Z,99380.76
2023-01-15T20:05:17.794Z,99378.71
2023-01-15T20:07:50.627Z,99377.71
2023-01-15T20:10:25.553Z,99384.23
2023-01-15T20:13:16.307Z,99377.05
2023-01-15T20:15:49.591Z,99378.27
2023-01-15T20:18:23.653Z,99376.83
2023-01-15T20:20:58.846Z,99375.62
2023-01-15T20:23:31.645Z,99374.17
2023-01-15T20:26:10.666Z,99371.23
2023-01-15T20:28:47.669Z,99371.62
2023-01-15T20:31:21.083Z,99371.36
2023-01-15T20:33:55.667Z,99373.89
2023-01-15T20:36:29.240Z,99367.23
2023-01-15T20:39:02.098Z,99375.94
2023-01-15T20:41:52.364Z,99381.02
2023-01-15T20:44:42.666Z,99386.41
2023-01-15T20:47:29.201Z,99382.23
2023-01-15T20:50:02.314Z,99383.80
2023-01-15T20:52:36.026Z,99364.64
2023-01-15T20:55:10.988Z,99379.16
2023-01-15T20:57:44.895Z,99388.55
2023-01-15T21:00:20.806Z,99387.31
2023-01-15T21:02:58.031Z,99373.25
2023-01-15T21:05:32.873Z,99381.89
2023-01-15T21:08:06.134Z,99366.32
2023-01-15T21:10:38.840Z,99383.85
2023-01-15T21:13:13.089Z,99384.72
2023-01-15T21:15:46.109Z,99381.86
2023-01-15T21:18:19.043Z,99385.15
2023-01-15T21:20:51.887Z,99385.27
2023-01-15T21:23:25.760Z,99385.35
2023-01-15T21:26:03.269Z,99370.46
2023-01-15T21:28:36.225Z,99387.52
2023-01-15T21:31:11.454Z,99386.02
2023-01-15T21:33:44.124Z,99382.64
2023-01-15T21:36:18.207Z,99369.23
2023-01-15T21:38:54.991Z,99393.95
2023-01-15T21:41:42.469Z,99388.52
2023-01-15T21:44:36.065Z,99389.85
2023-01-15T21:47:10.638Z,99389.92
2023-01-15T21:49:44.290Z,99385.55
2023-01-15T21:52:19.419Z,99387.94
2023-01-15T21:54:52.672Z,99380.46
2023-01-15T21:57:25.571Z,99391.77
2023-01-15T21:59:58.160Z,99391.19
2023-01-15T22:02:30.962Z,99390.56
2023-01-15T22:05:06.001Z,99389.20
2023-01-15T22:07:38.763Z,99388.35
2023-01-15T22:10:12.508Z,99371.60
2023-01-15T22:12:44.938Z,99387.19
2023-01-15T22:15:17.800Z,99389.45
2023-01-15T22:17:53.863Z,99390.71
2023-01-15T22:20:26.445Z,99391.43
2023-01-15T22:22:59.094Z,99385.77
2023-01-15T22:25:31.847Z,99385.90
2023-01-15T22:28:04.472Z,99381.13
2023-01-15T22:30:39.346Z,99381.64
2023-01-15T22:33:12.159Z,99378.55
2023-01-15T22:35:44.590Z,99360.99
2023-01-15T22:38:16.984Z,99360.91
2023-01-15T22:40:49.408Z,99374.20
2023-01-15T22:43:21.796Z,99367.61
2023-01-15T22:45:54.307Z,99362.23
2023-01-15T22:48:27.033Z,99365.61
2023-01-15T22:51:00.337Z,99367.16
2023-01-15T22:53:32.854Z,99350.43
2023-01-15T22:56:05.902Z,99362.77
2023-01-15T22:58:42.595Z,99359.95
2023-01-15T23:01:15.788Z,99360.00
2023-01-15T23:03:48.386Z,99358.25
2023-01-15T23:06:24.258Z,99359.35
2023-01-15T23:09:00.620Z,99365.20
2023-01-15T23:11:33.239Z,99363.45
2023-01-15T23:14:05.758Z,99366.98
2023-01-15T23:16:38.399Z,99358.80
2023-01-15T23:19:12.188Z,99353.63
2023-01-15T23:21:44.885Z,99354.20
2023-01-15T23:24:18.649Z,99353.82
2023-01-15T23:26:51.406Z,99358.61
2023-01-15T23:29:24.950Z,99359.21
2023-01-15T23:31:57.522Z,99357.91
2023-01-15T23:34:30.201Z,99360.16
2023-01-15T23:37:05.304Z,99353.77
2023-01-15T23:39:37.713Z,99355.50
2023-01-15T23:42:29.284Z,99352.41
2023-01-15T23:45:19.473Z,99345.67
2023-01-15T23:47:52.134Z,99345.34
2023-01-15T23:50:25.003Z,99347.40
2023-01-15T23:52:58.071Z,99344.33
2023-01-15T23:55:30.882Z,99344.60
2023-01-15T23:58:03.557Z,99334.92
